createdAt,value
2018-04-25T00:00:43.617Z,7.30
2018-04-25T00:01:43.522Z,7.40
2018-04-25T00:02:43.431Z,7.40
2018-04-25T00:03:43.371Z,7.20
2018-04-25T00:04:43.245Z,7.10
2018-04-25T00:05:43.155Z,7.80
2018-04-25T00:06:43.062Z,7.80
2018-04-25T00:07:42.970Z,8.20
2018-04-25T00:08:43.808Z,8.60
2018-04-25T00:09:42.786Z,8.60
2018-04-25T00:10:42.690Z,7.90
2018-04-25T00:11:42.602Z,7.60
2018-04-25T00:12:42.602Z,7.70
2018-04-25T00:13:42.445Z,8.20
2018-04-25T00:14:42.323Z,7.80
2018-04-25T00:15:42.236Z,7.50
2018-04-25T00:16:42.140Z,7.80
2018-04-25T00:17:42.047Z,7.80
2018-04-25T00:18:41.985Z,7.90
2018-04-25T00:19:41.961Z,7.90
2018-04-25T00:20:41.771Z,7.40
2018-04-25T00:21:41.680Z,7.30
2018-04-25T00:22:41.582Z,7.60
2018-04-25T00:23:41.531Z,7.20
2018-04-25T00:24:41.401Z,7.40
2018-04-25T00:25:41.310Z,6.90
2018-04-25T00:26:41.308Z,7.70
2018-04-25T00:27:41.125Z,7.90
2018-04-25T00:28:41.061Z,7.40
2018-04-25T00:29:40.940Z,7.60
2018-04-25T00:30:40.848Z,7.40
2018-04-25T00:31:40.754Z,7.30
2018-04-25T00:32:40.663Z,7.40
2018-04-25T00:33:40.674Z,7.40
2018-04-25T00:34:40.479Z,7.30
2018-04-25T00:35:40.385Z,7.60
2018-04-25T00:36:40.294Z,7.50
2018-04-25T00:37:40.199Z,7.90
2018-04-25T00:38:40.136Z,7.40
2018-04-25T00:39:40.015Z,7.70
2018-04-25T00:40:40.017Z,7.70
2018-04-25T00:41:39.831Z,7.50
2018-04-25T00:42:39.740Z,7.50
2018-04-25T00:43:39.676Z,7.50
2018-04-25T00:44:39.555Z,7.60
2018-04-25T00:45:39.474Z,8.10
2018-04-25T00:46:39.368Z,8.00
2018-04-25T00:47:39.367Z,8.00
2018-04-25T00:48:39.184Z,8.10
2018-04-25T00:49:39.119Z,8.00
2018-04-25T00:50:38.997Z,8.20
2018-04-25T00:51:38.908Z,8.50
2018-04-25T00:52:38.812Z,8.60
2018-04-25T00:53:38.723Z,7.90
2018-04-25T00:54:38.740Z,8.50
2018-04-25T00:55:38.537Z,8.00
2018-04-25T00:56:38.444Z,8.20
2018-04-25T00:57:38.351Z,8.30
2018-04-25T00:58:38.259Z,8.80
2018-04-25T00:59:38.203Z,8.10
2018-04-25T01:00:38.074Z,8.40
2018-04-25T01:01:38.076Z,8.80
2018-04-25T01:02:37.889Z,8.40
2018-04-25T01:03:37.802Z,8.30
2018-04-25T01:04:37.748Z,8.90
2018-04-25T01:05:37.611Z,9.30
2018-04-25T01:06:37.519Z,8.80
2018-04-25T01:07:37.425Z,8.80
2018-04-25T01:08:37.420Z,8.90
2018-04-25T01:09:37.267Z,9.50
2018-04-25T01:10:37.146Z,8.80
2018-04-25T01:11:37.091Z,9.70
2018-04-25T01:12:36.961Z,9.30
2018-04-25T01:13:36.867Z,9.20
2018-04-25T01:14:38.270Z,9.30
2018-04-25T01:15:36.777Z,9.60
2018-04-25T01:16:36.595Z,9.80
2018-04-25T01:17:36.494Z,10.40
2018-04-25T01:18:36.404Z,9.40
2018-04-25T01:19:36.345Z,9.80
2018-04-25T01:20:36.220Z,10.10
2018-04-25T01:21:36.127Z,10.00
2018-04-25T01:22:36.126Z,9.70
2018-04-25T01:23:35.941Z,9.90
2018-04-25T01:24:35.874Z,9.90
2018-04-25T01:25:35.757Z,9.90
2018-04-25T01:26:35.662Z,10.00
2018-04-25T01:27:35.570Z,10.30
2018-04-25T01:28:35.478Z,10.40
2018-04-25T01:29:35.505Z,9.40
2018-04-25T01:30:35.290Z,9.90
2018-04-25T01:31:35.202Z,9.90
2018-04-25T01:32:35.103Z,9.30
2018-04-25T01:33:35.010Z,9.90
2018-04-25T01:34:34.947Z,9.70
2018-04-25T01:35:34.825Z,10.30
2018-04-25T01:36:34.825Z,10.00
2018-04-25T01:37:34.639Z,10.20
2018-04-25T01:38:34.549Z,9.90
2018-04-25T01:39:34.457Z,9.60
2018-04-25T01:40:34.395Z,10.40
2018-04-25T01:41:34.268Z,10.30
2018-04-25T01:42:34.176Z,10.20
2018-04-25T01:43:34.085Z,10.00
2018-04-25T01:44:33.990Z,9.60
2018-04-25T01:45:33.930Z,10.50
2018-04-25T01:46:33.804Z,9.90
2018-04-25T01:47:33.713Z,9.80
2018-04-25T01:48:33.615Z,10.20
2018-04-25T01:49:33.524Z,9.90
2018-04-25T01:50:33.465Z,10.20
2018-04-25T01:51:33.338Z,10.10
2018-04-25T01:52:33.245Z,9.70
2018-04-25T01:53:33.153Z,10.20
2018-04-25T01:54:33.056Z,9.70
2018-04-25T01:55:32.999Z,9.50
2018-04-25T01:56:32.874Z,10.00
2018-04-25T01:57:32.781Z,10.70
2018-04-25T01:58:32.685Z,10.20
2018-04-25T01:59:32.596Z,9.80
2018-04-25T02:00:32.529Z,10.00
2018-04-25T02:01:32.405Z,10.20
2018-04-25T02:02:32.316Z,9.90
2018-04-25T02:03:32.223Z,9.90
2018-04-25T02:04:32.130Z,9.80
2018-04-25T02:05:32.053Z,10.00
2018-04-25T02:06:31.971Z,11.00
2018-04-25T02:07:31.852Z,9.80
2018-04-25T02:08:32.286Z,10.40
2018-04-25T02:09:31.662Z,10.10
2018-04-25T02:10:31.571Z,10.60
2018-04-25T02:11:31.506Z,10.60
2018-04-25T02:12:31.391Z,10.20
2018-04-25T02:13:31.290Z,10.10
2018-04-25T02:14:31.210Z,10.00
2018-04-25T02:15:31.117Z,9.80
2018-04-25T02:16:31.014Z,10.70
2018-04-25T02:17:30.952Z,10.50
2018-04-25T02:18:30.826Z,10.20
2018-04-25T02:19:30.733Z,10.80
2018-04-25T02:20:30.638Z,10.70
2018-04-25T02:21:30.543Z,9.90
2018-04-25T02:22:30.487Z,10.80
2018-04-25T02:23:30.359Z,10.90
2018-04-25T02:24:30.264Z,10.70
2018-04-25T02:25:30.188Z,10.60
2018-04-25T02:26:30.079Z,10.00
2018-04-25T02:27:30.019Z,10.80
2018-04-25T02:28:29.894Z,10.40
2018-04-25T02:29:29.801Z,10.60
2018-04-25T02:30:29.707Z,10.30
2018-04-25T02:31:29.616Z,10.00
2018-04-25T02:32:29.552Z,10.70
2018-04-25T02:33:29.428Z,10.20
2018-04-25T02:34:29.334Z,11.20
2018-04-25T02:35:29.251Z,11.10
2018-04-25T02:36:29.148Z,10.80
2018-04-25T02:37:29.083Z,10.80
2018-04-25T02:38:28.962Z,10.70
2018-04-25T02:39:28.866Z,10.40
2018-04-25T02:40:28.776Z,10.80
2018-04-25T02:41:28.681Z,10.60
2018-04-25T02:42:28.617Z,11.10
2018-04-25T02:43:28.496Z,11.10
2018-04-25T02:44:28.402Z,10.90
2018-04-25T02:45:28.310Z,10.50
2018-04-25T02:46:28.224Z,10.90
2018-04-25T02:47:28.153Z,11.60
2018-04-25T02:48:28.030Z,11.20
2018-04-25T02:49:27.935Z,10.60
2018-04-25T02:50:27.855Z,10.70
2018-04-25T02:51:27.751Z,10.40
2018-04-25T02:52:27.689Z,10.90
2018-04-25T02:53:27.565Z,10.90
2018-04-25T02:54:27.468Z,10.70
2018-04-25T02:55:27.380Z,10.30
2018-04-25T02:56:27.284Z,10.50
2018-04-25T02:57:27.836Z,10.90
2018-04-25T02:58:27.098Z,11.20
2018-04-25T02:59:27.003Z,10.80
2018-04-25T03:00:26.910Z,11.40
2018-04-25T03:01:26.818Z,10.60
2018-04-25T03:02:26.728Z,11.90
2018-04-25T03:03:26.660Z,11.00
2018-04-25T03:04:26.537Z,11.70
2018-04-25T03:05:26.445Z,11.70
2018-04-25T03:06:26.361Z,12.40
2018-04-25T03:07:26.258Z,11.20
2018-04-25T03:08:26.195Z,12.20
2018-04-25T03:09:26.070Z,12.30
2018-04-25T03:10:25.976Z,11.70
2018-04-25T03:11:25.880Z,11.60
2018-04-25T03:12:25.792Z,12.50
2018-04-25T03:13:25.725Z,11.90
2018-04-25T03:14:25.696Z,11.80
2018-04-25T03:15:25.510Z,12.10
2018-04-25T03:16:25.416Z,12.10
2018-04-25T03:17:25.321Z,12.70
2018-04-25T03:18:25.254Z,12.80
2018-04-25T03:19:25.134Z,12.60
2018-04-25T03:20:25.038Z,13.30
2018-04-25T03:21:24.949Z,13.40
2018-04-25T03:22:24.854Z,12.90
2018-04-25T03:23:24.789Z,13.30
2018-04-25T03:24:24.671Z,13.20
2018-04-25T03:25:24.574Z,13.70
2018-04-25T03:26:24.494Z,13.60
2018-04-25T03:27:24.390Z,13.30
2018-04-25T03:28:24.413Z,14.10
2018-04-25T03:29:24.196Z,13.20
2018-04-25T03:30:24.105Z,13.50
2018-04-25T03:31:24.011Z,13.10
2018-04-25T03:32:23.914Z,12.70
2018-04-25T03:33:23.851Z,13.30
2018-04-25T03:34:23.808Z,13.60
2018-04-25T03:35:23.731Z,13.10
2018-04-25T03:36:23.541Z,12.80
2018-04-25T03:37:23.447Z,12.70
2018-04-25T03:38:23.389Z,12.90
2018-04-25T03:39:23.262Z,13.50
2018-04-25T03:40:23.170Z,13.50
2018-04-25T03:41:23.217Z,12.80
2018-04-25T03:42:23.075Z,14.00
2018-04-25T03:43:22.917Z,13.80
2018-04-25T03:44:22.791Z,13.70
2018-04-25T03:45:22.704Z,13.80
2018-04-25T03:46:22.605Z,13.60
2018-04-25T03:47:22.525Z,13.30
2018-04-25T03:48:22.447Z,13.30
2018-04-25T03:49:22.416Z,12.90
2018-04-25T03:50:22.231Z,13.20
2018-04-25T03:51:22.136Z,13.50
2018-04-25T03:52:22.041Z,13.30
2018-04-25T03:53:21.977Z,13.70
2018-04-25T03:54:21.855Z,13.60
2018-04-25T03:55:21.761Z,13.20
2018-04-25T03:56:21.763Z,13.60
2018-04-25T03:57:21.587Z,13.80
2018-04-25T03:58:21.484Z,12.60
2018-04-25T03:59:21.417Z,13.20
2018-04-25T04:00:21.293Z,13.10
2018-04-25T04:01:21.202Z,13.60
2018-04-25T04:02:21.107Z,12.90
2018-04-25T04:03:21.107Z,12.50
2018-04-25T04:04:20.948Z,12.60
2018-04-25T04:05:20.823Z,13.50
2018-04-25T04:06:20.732Z,12.90
2018-04-25T04:07:20.639Z,13.20
2018-04-25T04:08:20.542Z,13.30
2018-04-25T04:09:20.486Z,11.90
2018-04-25T04:10:20.451Z,12.40
2018-04-25T04:11:20.264Z,12.60
2018-04-25T04:12:20.239Z,13.80
2018-04-25T04:13:20.075Z,13.00
2018-04-25T04:14:20.015Z,13.10
2018-04-25T04:15:19.892Z,13.40
2018-04-25T04:16:19.796Z,13.10
2018-04-25T04:17:19.805Z,12.60
2018-04-25T04:18:19.607Z,12.80
2018-04-25T04:19:21.303Z,12.80
2018-04-25T04:20:19.422Z,12.60
2018-04-25T04:21:19.330Z,13.00
2018-04-25T04:22:19.234Z,13.40
2018-04-25T04:23:19.142Z,13.10
2018-04-25T04:24:19.174Z,12.60
2018-04-25T04:25:18.955Z,13.00
2018-04-25T04:26:18.864Z,13.20
2018-04-25T04:27:18.769Z,12.70
2018-04-25T04:28:18.677Z,13.20
2018-04-25T04:29:18.613Z,13.50
2018-04-25T04:30:18.487Z,13.40
2018-04-25T04:31:18.486Z,13.80
2018-04-25T04:32:18.301Z,13.80
2018-04-25T04:33:18.209Z,13.30
2018-04-25T04:34:18.146Z,13.50
2018-04-25T04:35:18.023Z,12.90
2018-04-25T04:36:17.928Z,13.00
2018-04-25T04:37:17.846Z,13.10
2018-04-25T04:38:17.843Z,13.20
2018-04-25T04:39:17.694Z,12.40
2018-04-25T04:40:17.556Z,13.10
2018-04-25T04:41:17.462Z,12.40
2018-04-25T04:42:17.388Z,13.20
2018-04-25T04:43:17.313Z,12.70
2018-04-25T04:44:17.211Z,11.60
2018-04-25T04:45:17.090Z,12.90
2018-04-25T04:46:16.998Z,12.40
2018-04-25T04:47:16.907Z,12.10
2018-04-25T04:48:16.810Z,12.00
2018-04-25T04:49:16.747Z,12.00
2018-04-25T04:50:16.626Z,11.70
2018-04-25T04:51:16.536Z,12.70
2018-04-25T04:52:16.440Z,12.50
2018-04-25T04:53:16.346Z,12.30
2018-04-25T04:54:16.285Z,12.80
2018-04-25T04:55:16.170Z,11.70
2018-04-25T04:56:16.069Z,12.40
2018-04-25T04:57:16.007Z,12.20
2018-04-25T04:58:15.885Z,12.00
2018-04-25T04:59:15.791Z,12.10
2018-04-25T05:00:15.725Z,12.80
2018-04-25T05:01:15.605Z,12.30
2018-04-25T05:02:15.512Z,12.10
2018-04-25T05:03:15.422Z,12.20
2018-04-25T05:04:15.329Z,12.30
2018-04-25T05:05:15.267Z,11.90
2018-04-25T05:06:15.142Z,11.70
2018-04-25T05:07:15.054Z,11.60
2018-04-25T05:08:14.960Z,11.40
2018-04-25T05:09:14.867Z,12.30
2018-04-25T05:10:14.805Z,12.10
2018-04-25T05:11:14.683Z,11.50
2018-04-25T05:12:14.590Z,11.30
2018-04-25T05:13:14.550Z,11.60
2018-04-25T05:14:14.411Z,11.40
2018-04-25T05:15:14.345Z,11.20
2018-04-25T05:16:14.224Z,11.60
2018-04-25T05:17:14.134Z,11.70
2018-04-25T05:18:14.042Z,10.40
2018-04-25T05:19:13.950Z,10.40
2018-04-25T05:20:13.885Z,10.40
2018-04-25T05:21:13.766Z,11.20
2018-04-25T05:22:13.680Z,11.40
2018-04-25T05:23:13.585Z,10.90
2018-04-25T05:24:13.492Z,11.40
2018-04-25T05:25:13.431Z,11.20
2018-04-25T05:26:13.308Z,11.60
2018-04-25T05:27:13.216Z,11.00
2018-04-25T05:28:13.129Z,10.90
2018-04-25T05:29:13.035Z,11.00
2018-04-25T05:30:12.972Z,10.70
2018-04-25T05:31:12.857Z,11.00
2018-04-25T05:32:12.844Z,11.10
2018-04-25T05:33:12.674Z,11.00
2018-04-25T05:34:12.582Z,10.80
2018-04-25T05:35:12.522Z,10.50
2018-04-25T05:36:12.404Z,11.10
2018-04-25T05:37:12.312Z,11.50
2018-04-25T05:38:12.232Z,10.80
2018-04-25T05:39:12.130Z,11.10
2018-04-25T05:40:12.070Z,10.60
2018-04-25T05:41:11.949Z,10.50
2018-04-25T05:42:11.859Z,9.90
2018-04-25T05:43:11.771Z,10.80
2018-04-25T05:44:11.675Z,10.80
2018-04-25T05:45:11.616Z,10.80
2018-04-25T05:46:11.497Z,10.70
2018-04-25T05:47:11.410Z,10.50
2018-04-25T05:48:11.317Z,10.40
2018-04-25T05:49:11.226Z,9.70
2018-04-25T05:50:11.166Z,10.40
2018-04-25T05:51:11.050Z,10.20
2018-04-25T05:52:10.956Z,9.40
2018-04-25T05:53:10.868Z,9.60
2018-04-25T05:54:10.872Z,9.40
2018-04-25T05:55:10.718Z,9.00
2018-04-25T05:56:10.598Z,9.50
2018-04-25T05:57:10.508Z,8.10
2018-04-25T05:58:10.419Z,8.00
2018-04-25T05:59:10.329Z,9.50
2018-04-25T06:00:10.266Z,9.40
2018-04-25T06:01:10.244Z,9.30
2018-04-25T06:02:10.055Z,9.60
2018-04-25T06:03:09.971Z,9.50
2018-04-25T06:04:09.877Z,9.60
2018-04-25T06:05:09.821Z,9.30
2018-04-25T06:06:09.700Z,9.70
2018-04-25T06:07:09.615Z,9.10
2018-04-25T06:08:09.613Z,9.10
2018-04-25T06:09:09.434Z,9.80
2018-04-25T06:10:09.349Z,9.90
2018-04-25T06:11:09.280Z,9.80
2018-04-25T06:12:09.162Z,10.30
2018-04-25T06:13:09.073Z,9.40
2018-04-25T06:14:08.985Z,9.70
2018-04-25T06:15:08.992Z,9.80
2018-04-25T06:16:08.839Z,9.40
2018-04-25T06:17:08.718Z,9.10
2018-04-25T06:18:08.629Z,9.70
2018-04-25T06:19:09.391Z,9.50
2018-04-25T06:20:08.453Z,9.00
2018-04-25T06:21:08.405Z,9.30
2018-04-25T06:22:08.368Z,9.50
2018-04-25T06:23:08.181Z,8.80
2018-04-25T06:24:08.094Z,8.70
2018-04-25T06:25:08.005Z,8.80
2018-04-25T06:26:07.948Z,8.80
2018-04-25T06:27:07.829Z,8.80
2018-04-25T06:28:07.766Z,7.80
2018-04-25T06:29:07.746Z,8.60
2018-04-25T06:30:07.559Z,9.00
2018-04-25T06:31:07.502Z,8.00
2018-04-25T06:32:07.385Z,8.80
2018-04-25T06:33:07.295Z,9.00
2018-04-25T06:34:07.205Z,8.90
2018-04-25T06:35:07.124Z,8.30
2018-04-25T06:36:07.927Z,8.40
2018-04-25T06:37:06.937Z,7.80
2018-04-25T06:38:06.849Z,7.80
2018-04-25T06:39:06.760Z,7.40
2018-04-25T06:40:06.674Z,7.40
2018-04-25T06:41:06.613Z,7.60
2018-04-25T06:42:06.500Z,7.80
2018-04-25T06:43:06.499Z,7.70
2018-04-25T06:44:06.320Z,7.00
2018-04-25T06:45:06.260Z,7.40
2018-04-25T06:46:06.171Z,7.30
2018-04-25T06:47:06.055Z,6.90
2018-04-25T06:48:05.966Z,7.40
2018-04-25T06:49:05.886Z,6.90
2018-04-25T06:50:05.889Z,7.20
2018-04-25T06:51:05.733Z,6.90
2018-04-25T06:52:05.619Z,6.80
2018-04-25T06:53:05.528Z,6.90
2018-04-25T06:54:05.443Z,6.60
2018-04-25T06:55:05.357Z,6.20
2018-04-25T06:56:05.303Z,5.70
2018-04-25T06:57:05.181Z,5.00
2018-04-25T06:58:05.095Z,5.30
2018-04-25T06:59:05.009Z,4.80
2018-04-25T07:00:04.918Z,5.10
2018-04-25T07:01:04.863Z,4.40
2018-04-25T07:02:04.746Z,4.70
2018-04-25T07:03:04.661Z,4.20
2018-04-25T07:04:04.683Z,4.10
2018-04-25T07:05:04.488Z,4.20
2018-04-25T07:06:04.438Z,4.40
2018-04-25T07:07:04.318Z,4.20
2018-04-25T07:08:04.305Z,4.10
2018-04-25T07:09:04.146Z,4.20
2018-04-25T07:10:04.187Z,4.00
2018-04-25T07:11:04.007Z,3.90
2018-04-25T07:12:03.886Z,3.80
2018-04-25T07:13:03.804Z,3.80
2018-04-25T07:14:03.776Z,4.00
2018-04-25T07:15:03.627Z,3.60
2018-04-25T07:16:03.551Z,3.90
2018-04-25T07:17:03.484Z,4.20
2018-04-25T07:18:03.367Z,4.40
2018-04-25T07:19:03.285Z,4.10
2018-04-25T07:20:03.196Z,4.20
2018-04-25T07:21:03.112Z,3.90
2018-04-25T07:22:03.052Z,3.90
2018-04-25T07:23:02.937Z,3.90
2018-04-25T07:24:02.848Z,3.80
2018-04-25T07:25:02.765Z,3.50
2018-04-25T07:26:02.681Z,4.00
2018-04-25T07:27:02.622Z,4.10
2018-04-25T07:28:02.508Z,4.20
2018-04-25T07:29:02.419Z,4.00
2018-04-25T07:30:02.332Z,3.70
2018-04-25T07:31:02.248Z,4.10
2018-04-25T07:32:02.190Z,4.10
2018-04-25T07:33:02.072Z,4.10
2018-04-25T07:34:01.986Z,4.20
2018-04-25T07:35:01.907Z,3.90
2018-04-25T07:36:01.814Z,3.90
2018-04-25T07:37:01.759Z,4.20
2018-04-25T07:38:01.642Z,4.40
2018-04-25T07:39:01.556Z,4.40
2018-04-25T07:40:01.472Z,4.80
2018-04-25T07:41:01.385Z,4.60
2018-04-25T07:42:01.408Z,4.40
2018-04-25T07:43:01.216Z,4.30
2018-04-25T07:44:02.853Z,4.50
2018-04-25T07:45:01.040Z,4.40
2018-04-25T07:46:00.959Z,4.30
2018-04-25T07:47:00.901Z,4.60
2018-04-25T07:48:00.779Z,4.20
2018-04-25T07:49:00.694Z,4.70
2018-04-25T07:50:00.612Z,4.50
2018-04-25T07:51:00.523Z,4.30
2018-04-25T07:52:01.392Z,4.30
2018-04-25T07:53:00.352Z,4.70
2018-04-25T07:54:00.265Z,4.10
2018-04-25T07:55:00.180Z,4.40
2018-04-25T07:56:00.098Z,4.40
2018-04-25T07:57:00.038Z,4.70
2018-04-25T07:57:59.922Z,4.70
2018-04-25T07:58:59.937Z,4.40
2018-04-25T07:59:59.747Z,4.70
2018-04-25T08:00:59.664Z,4.50
2018-04-25T08:01:59.602Z,4.50
2018-04-25T08:02:59.492Z,5.10
2018-04-25T08:03:59.405Z,4.90
2018-04-25T08:04:59.320Z,5.20
2018-04-25T08:05:59.300Z,4.50
2018-04-25T08:06:59.177Z,4.60
2018-04-25T08:07:59.058Z,4.60
2018-04-25T08:08:58.975Z,4.50
2018-04-25T08:09:58.891Z,4.90
2018-04-25T08:10:58.807Z,4.70
2018-04-25T08:11:58.747Z,4.50
2018-04-25T08:12:58.635Z,4.70
2018-04-25T08:13:58.551Z,4.40
2018-04-25T08:14:58.465Z,4.40
2018-04-25T08:15:58.379Z,4.10
2018-04-25T08:16:58.326Z,4.30
2018-04-25T08:17:58.235Z,4.00
2018-04-25T08:18:58.130Z,4.10
2018-04-25T08:19:58.045Z,3.90
2018-04-25T08:20:57.962Z,4.30
2018-04-25T08:21:57.884Z,4.00
2018-04-25T08:22:57.826Z,3.70
2018-04-25T08:23:57.709Z,4.00
2018-04-25T08:24:57.626Z,4.00
2018-04-25T08:25:57.544Z,3.90
2018-04-25T08:26:57.558Z,4.00
2018-04-25T08:27:57.408Z,3.70
2018-04-25T08:28:57.296Z,3.90
2018-04-25T08:29:57.209Z,3.80
2018-04-25T08:30:57.129Z,3.80
2018-04-25T08:31:57.043Z,3.40
2018-04-25T08:32:56.989Z,3.40
2018-04-25T08:33:56.877Z,3.90
2018-04-25T08:34:56.796Z,4.00
2018-04-25T08:35:56.711Z,4.00
2018-04-25T08:36:56.633Z,3.50
2018-04-25T08:37:56.577Z,3.50
2018-04-25T08:38:56.468Z,3.90
2018-04-25T08:39:56.381Z,3.90
2018-04-25T08:40:56.300Z,4.00
2018-04-25T08:41:56.218Z,4.60
2018-04-25T08:42:56.172Z,3.50
2018-04-25T08:43:56.051Z,3.90
2018-04-25T08:44:56.036Z,3.60
2018-04-25T08:45:55.883Z,3.60
2018-04-25T08:46:55.806Z,3.40
2018-04-25T08:47:55.746Z,3.20
2018-04-25T08:48:55.923Z,3.80
2018-04-25T08:49:55.554Z,3.90
2018-04-25T08:50:55.470Z,3.40
2018-04-25T08:51:55.394Z,3.60
2018-04-25T08:52:55.332Z,4.30
2018-04-25T08:53:55.224Z,3.70
2018-04-25T08:54:55.153Z,3.70
2018-04-25T08:55:55.155Z,4.00
2018-04-25T08:56:54.973Z,3.50
2018-04-25T08:57:54.928Z,3.60
2018-04-25T08:58:54.808Z,3.60
2018-04-25T08:59:54.727Z,3.40
2018-04-25T09:00:56.379Z,4.10
2018-04-25T09:01:54.561Z,3.70
2018-04-25T09:02:54.599Z,3.80
2018-04-25T09:03:54.393Z,3.70
2018-04-25T09:04:54.308Z,3.50
2018-04-25T09:05:54.255Z,3.90
2018-04-25T09:06:54.148Z,3.90
2018-04-25T09:07:54.089Z,3.90
2018-04-25T09:08:53.978Z,4.20
2018-04-25T09:09:53.984Z,3.70
2018-04-25T09:10:53.812Z,3.30
2018-04-25T09:11:53.726Z,3.50
2018-04-25T09:12:53.671Z,3.90
2018-04-25T09:13:53.561Z,3.60
2018-04-25T09:14:53.475Z,3.60
2018-04-25T09:15:53.391Z,3.50
2018-04-25T09:16:53.395Z,3.90
2018-04-25T09:17:53.258Z,3.40
2018-04-25T09:18:53.141Z,3.40
2018-04-25T09:19:53.055Z,3.60
2018-04-25T09:20:52.974Z,3.50
2018-04-25T09:21:52.892Z,4.00
2018-04-25T09:22:52.805Z,3.60
2018-04-25T09:23:52.841Z,3.60
2018-04-25T09:24:52.635Z,3.60
2018-04-25T09:25:52.551Z,3.60
2018-04-25T09:26:52.465Z,3.90
2018-04-25T09:27:52.380Z,3.70
2018-04-25T09:28:52.323Z,4.00
2018-04-25T09:29:52.213Z,3.80
2018-04-25T09:30:52.221Z,4.10
2018-04-25T09:31:52.041Z,3.50
2018-04-25T09:32:51.959Z,4.10
2018-04-25T09:33:51.905Z,4.20
2018-04-25T09:34:51.789Z,3.70
2018-04-25T09:35:51.703Z,3.80
2018-04-25T09:36:51.621Z,3.70
2018-04-25T09:37:51.623Z,3.80
2018-04-25T09:38:51.486Z,3.90
2018-04-25T09:39:51.363Z,3.80
2018-04-25T09:40:51.281Z,3.80
2018-04-25T09:41:51.197Z,4.00
2018-04-25T09:42:51.112Z,4.00
2018-04-25T09:43:51.057Z,3.90
2018-04-25T09:44:51.034Z,3.80
2018-04-25T09:45:50.882Z,4.10
2018-04-25T09:46:50.774Z,4.00
2018-04-25T09:47:50.689Z,3.80
2018-04-25T09:48:50.632Z,4.00
2018-04-25T09:49:50.520Z,4.00
2018-04-25T09:50:50.447Z,3.90
2018-04-25T09:51:50.396Z,4.40
2018-04-25T09:52:50.262Z,4.20
2018-04-25T09:53:50.207Z,4.10
2018-04-25T09:54:50.092Z,4.20
2018-04-25T09:55:50.009Z,4.20
2018-04-25T09:56:49.920Z,4.30
2018-04-25T09:57:49.865Z,4.20
2018-04-25T09:58:49.786Z,4.10
2018-04-25T09:59:49.669Z,3.80
2018-04-25T10:00:49.637Z,3.90
2018-04-25T10:01:49.500Z,4.20
2018-04-25T10:02:49.412Z,4.10
2018-04-25T10:03:49.359Z,4.00
2018-04-25T10:04:49.239Z,3.80
2018-04-25T10:05:49.155Z,4.00
2018-04-25T10:06:49.070Z,4.20
2018-04-25T10:07:48.983Z,3.80
2018-04-25T10:08:48.927Z,3.80
2018-04-25T10:09:48.815Z,4.20
2018-04-25T10:10:48.740Z,4.10
2018-04-25T10:11:48.646Z,4.00
2018-04-25T10:12:48.562Z,4.10
2018-04-25T10:13:48.501Z,4.10
2018-04-25T10:14:48.391Z,4.00
2018-04-25T10:15:48.304Z,3.80
2018-04-25T10:16:48.220Z,3.90
2018-04-25T10:17:48.133Z,3.80
2018-04-25T10:18:48.084Z,4.00
2018-04-25T10:19:47.966Z,4.20
2018-04-25T10:20:47.880Z,3.90
2018-04-25T10:21:47.798Z,4.20
2018-04-25T10:22:47.712Z,4.00
2018-04-25T10:23:47.627Z,4.00
2018-04-25T10:24:47.572Z,4.00
2018-04-25T10:28:54.306Z,3.80
2018-04-25T10:29:54.192Z,4.00
2018-04-25T10:30:54.196Z,4.00
2018-04-25T10:31:54.077Z,4.20
2018-04-25T10:32:53.937Z,4.20
2018-04-25T10:33:53.881Z,4.40
2018-04-25T10:34:53.769Z,4.50
2018-04-25T10:35:53.682Z,3.90
2018-04-25T10:36:53.594Z,4.40
2018-04-25T10:37:53.508Z,4.80
2018-04-25T10:38:53.496Z,4.50
2018-04-25T10:41:24.781Z,4.00
2018-04-25T10:42:24.658Z,4.60
2018-04-25T10:43:24.574Z,4.40
2018-04-25T10:44:24.899Z,4.00
2018-04-25T10:45:24.401Z,4.20
2018-04-25T10:46:24.315Z,4.20
2018-04-25T10:47:24.229Z,4.00
2018-04-25T10:48:24.144Z,3.80
2018-04-25T10:49:24.092Z,3.60
2018-04-25T10:50:23.973Z,3.80
2018-04-25T10:51:23.995Z,3.80
2018-04-25T10:52:23.799Z,3.70
2018-04-25T10:53:23.718Z,3.90
2018-04-25T10:54:23.661Z,3.90
2018-04-25T10:55:23.579Z,4.10
2018-04-25T10:56:23.462Z,3.90
2018-04-25T10:57:23.388Z,3.70
2018-04-25T10:58:23.291Z,3.80
2018-04-25T10:59:23.236Z,3.40
2018-04-25T11:00:23.122Z,3.60
2018-04-25T11:01:23.036Z,3.60
2018-04-25T11:02:22.972Z,3.60
2018-04-25T11:03:22.865Z,3.60
2018-04-25T11:04:22.835Z,3.80
2018-04-25T11:05:22.695Z,4.00
2018-04-25T11:06:22.610Z,4.00
2018-04-25T11:07:22.566Z,3.70
2018-04-25T11:08:22.453Z,3.80
2018-04-25T11:09:22.355Z,3.90
2018-04-25T11:10:22.300Z,4.10
2018-04-25T11:11:22.184Z,3.50
2018-04-25T11:12:22.099Z,3.90
2018-04-25T11:13:22.011Z,3.70
2018-04-25T11:14:21.930Z,4.10
2018-04-25T11:15:21.874Z,3.80
2018-04-25T11:16:21.758Z,3.80
2018-04-25T11:17:21.673Z,4.00
2018-04-25T11:18:21.584Z,3.70
2018-04-25T11:19:21.501Z,4.10
2018-04-25T11:20:21.452Z,4.20
2018-04-25T11:21:21.326Z,3.90
2018-04-25T11:22:21.242Z,4.20
2018-04-25T11:23:21.153Z,3.80
2018-04-25T11:24:21.067Z,4.00
2018-04-25T11:25:21.110Z,3.80
2018-04-25T11:26:20.892Z,4.10
2018-04-25T11:27:20.803Z,4.40
2018-04-25T11:28:20.717Z,3.80
2018-04-25T11:29:20.632Z,4.10
2018-04-25T11:30:20.573Z,4.30
2018-04-25T11:31:20.462Z,3.80
2018-04-25T11:32:20.467Z,4.00
2018-04-25T11:33:20.282Z,4.00
2018-04-25T11:34:20.204Z,3.60
2018-04-25T11:35:20.143Z,3.70
2018-04-25T11:36:20.024Z,3.60
2018-04-25T11:37:19.935Z,3.80
2018-04-25T11:38:19.854Z,3.40
2018-04-25T11:39:19.857Z,3.70
2018-04-25T11:40:19.708Z,3.20
2018-04-25T11:41:19.595Z,3.30
2018-04-25T11:42:19.516Z,3.90
2018-04-25T11:43:19.427Z,3.70
2018-04-25T11:44:19.335Z,3.90
2018-04-25T11:45:19.285Z,3.80
2018-04-25T11:46:19.253Z,4.10
2018-04-25T11:47:19.184Z,3.70
2018-04-25T11:48:18.989Z,3.70
2018-04-25T11:49:18.903Z,3.80
2018-04-25T11:50:18.849Z,3.80
2018-04-25T11:51:18.728Z,4.10
2018-04-25T11:52:18.643Z,3.70
2018-04-25T11:53:18.653Z,3.80
2018-04-25T11:54:18.471Z,3.60
2018-04-25T11:55:18.418Z,4.00
2018-04-25T11:56:18.297Z,4.30
2018-04-25T11:57:18.211Z,4.30
2018-04-25T11:58:18.123Z,3.80
2018-04-25T11:59:18.048Z,4.10
2018-04-25T12:00:18.077Z,3.50
2018-04-25T12:01:17.867Z,3.70
2018-04-25T12:02:17.781Z,3.80
2018-04-25T12:03:17.692Z,3.80
2018-04-25T12:04:17.605Z,3.60
2018-04-25T12:05:17.549Z,4.20
2018-04-25T12:06:17.431Z,4.00
2018-04-25T12:07:17.437Z,4.30
2018-04-25T12:08:17.260Z,4.10
2018-04-25T12:09:17.169Z,3.80
2018-04-25T12:10:17.117Z,4.40
2018-04-25T12:11:16.998Z,4.00
2018-04-25T12:12:16.956Z,3.60
2018-04-25T12:13:16.892Z,3.90
2018-04-25T12:14:16.839Z,4.00
2018-04-25T12:15:16.684Z,4.10
2018-04-25T12:16:16.568Z,3.90
2018-04-25T12:17:16.481Z,3.90
2018-04-25T12:18:16.396Z,3.70
2018-04-25T12:19:16.311Z,3.40
2018-04-25T12:20:16.223Z,3.70
2018-04-25T12:21:16.261Z,3.40
2018-04-25T12:22:16.053Z,3.60
2018-04-25T12:23:15.967Z,4.00
2018-04-25T12:24:15.889Z,3.60
2018-04-25T12:25:15.798Z,3.60
2018-04-25T12:26:15.740Z,3.60
2018-04-25T12:27:15.715Z,3.20
2018-04-25T12:28:15.540Z,3.70
2018-04-25T12:29:15.454Z,3.30
2018-04-25T12:30:15.374Z,3.10
2018-04-25T12:31:15.316Z,3.40
2018-04-25T12:32:15.198Z,3.50
2018-04-25T12:33:15.111Z,3.10
2018-04-25T12:34:15.029Z,3.00
2018-04-25T12:35:14.950Z,3.30
2018-04-25T12:36:14.889Z,2.90
2018-04-25T12:37:14.774Z,3.20
2018-04-25T12:38:14.688Z,2.90
2018-04-25T12:39:14.604Z,3.20
2018-04-25T12:40:14.519Z,3.10
2018-04-25T12:41:14.496Z,3.50
2018-04-25T12:42:14.351Z,3.20
2018-04-25T12:43:14.268Z,3.80
2018-04-25T12:44:14.185Z,3.10
2018-04-25T12:45:14.100Z,3.80
2018-04-25T12:46:14.051Z,3.40
2018-04-25T12:47:13.973Z,3.60
2018-04-25T12:48:13.848Z,3.80
2018-04-25T12:49:13.768Z,3.40
2018-04-25T12:50:13.679Z,4.10
2018-04-25T12:51:13.626Z,3.50
2018-04-25T12:52:13.512Z,3.50
2018-04-25T12:53:13.447Z,3.40
2018-04-25T12:54:13.345Z,3.50
2018-04-25T12:55:13.262Z,3.40
2018-04-25T12:56:13.208Z,3.20
2018-04-25T12:57:13.096Z,3.50
2018-04-25T12:58:13.016Z,3.90
2018-04-25T12:59:12.927Z,3.80
2018-04-25T13:00:12.845Z,4.00
2018-04-25T13:01:12.791Z,3.50
2018-04-25T13:02:12.677Z,3.90
2018-04-25T13:03:12.594Z,3.60
2018-04-25T13:04:12.521Z,3.30
2018-04-25T13:05:12.425Z,3.30
2018-04-25T13:06:12.377Z,3.50
2018-04-25T13:07:12.259Z,3.60
2018-04-25T13:08:12.177Z,3.80
2018-04-25T13:09:12.092Z,3.70
2018-04-25T13:10:12.009Z,3.50
2018-04-25T13:11:11.956Z,3.70
2018-04-25T13:12:11.841Z,3.50
2018-04-25T13:13:11.759Z,3.30
2018-04-25T13:14:11.675Z,3.60